sensor_id;sensor_type;location;lat;lon;timestamp;temperature;humidity
3860;DHT22;1945;52.036;8.614;2023-03-21T00:02:01;8.80;99.90
3860;DHT22;1945;52.036;8.614;2023-03-21T00:04:28;9.20;99.90
3860;DHT22;1945;52.036;8.614;2023-03-21T00:06:55;8.80;99.90
3860;DHT22;1945;52.036;8.614;2023-03-21T00:09:21;8.80;99.90
3860;DHT22;1945;52.036;8.614;2023-03-21T00:11:48;9.20;99.90
3860;DHT22;1945;52.036;8.614;2023-03-21T00:14:16;9.20;99.90
3860;DHT22;1945;52.036;8.614;2023-03-21T00:16:44;8.80;99.90
3860;DHT22;1945;52.036;8.614;2023-03-21T00:19:15;9.20;99.90
3860;DHT22;1945;52.036;8.614;2023-03-21T00:21:42;9.20;99.90
3860;DHT22;1945;52.036;8.614;2023-03-21T00:24:10;9.30;99.90
3860;DHT22;1945;52.036;8.614;2023-03-21T00:26:36;8.80;99.90
3860;DHT22;1945;52.036;8.614;2023-03-21T00:29:03;9.30;99.90
3860;DHT22;1945;52.036;8.614;2023-03-21T00:31:31;8.80;99.90
3860;DHT22;1945;52.036;8.614;2023-03-21T00:33:59;8.80;99.90
3860;DHT22;1945;52.036;8.614;2023-03-21T00:36:25;8.80;99.90
3860;DHT22;1945;52.036;8.614;2023-03-21T00:38:53;8.80;99.90
3860;DHT22;1945;52.036;8.614;2023-03-21T00:41:19;9.30;99.90
3860;DHT22;1945;52.036;8.614;2023-03-21T00:43:46;9.10;99.90
3860;DHT22;1945;52.036;8.614;2023-03-21T00:46:13;9.30;99.90
3860;DHT22;1945;52.036;8.614;2023-03-21T00:48:41;8.80;99.90
3860;DHT22;1945;52.036;8.614;2023-03-21T00:51:13;9.20;99.90
3860;DHT22;1945;52.036;8.614;2023-03-21T00:53:41;8.80;99.90
3860;DHT22;1945;52.036;8.614;2023-03-21T00:56:08;8.80;99.90
3860;DHT22;1945;52.036;8.614;2023-03-21T00:58:34;8.80;99.90
3860;DHT22;1945;52.036;8.614;2023-03-21T01:01:01;9.20;1.00
3860;DHT22;1945;52.036;8.614;2023-03-21T01:03:28;9.20;1.00
3860;DHT22;1945;52.036;8.614;2023-03-21T01:05:56;9.20;1.00
3860;DHT22;1945;52.036;8.614;2023-03-21T01:08:31;8.70;1.00
3860;DHT22;1945;52.036;8.614;2023-03-21T01:11:02;8.60;1.00
3860;DHT22;1945;52.036;8.614;2023-03-21T01:13:29;9.10;1.00
3860;DHT22;1945;52.036;8.614;2023-03-21T01:15:56;8.90;1.00
3860;DHT22;1945;52.036;8.614;2023-03-21T01:18:25;8.60;1.00
3860;DHT22;1945;52.036;8.614;2023-03-21T01:20:53;8.50;1.00
3860;DHT22;1945;52.036;8.614;2023-03-21T01:23:24;8.90;1.00
3860;DHT22;1945;52.036;8.614;2023-03-21T01:25:52;8.60;1.00
3860;DHT22;1945;52.036;8.614;2023-03-21T01:28:19;9.00;1.00
3860;DHT22;1945;52.036;8.614;2023-03-21T01:30:47;8.50;1.00
3860;DHT22;1945;52.036;8.614;2023-03-21T01:33:14;8.50;1.00
3860;DHT22;1945;52.036;8.614;2023-03-21T01:35:42;8.50;1.00
3860;DHT22;1945;52.036;8.614;2023-03-21T01:38:09;8.60;1.00
3860;DHT22;1945;52.036;8.614;2023-03-21T01:40:37;9.00;1.00
3860;DHT22;1945;52.036;8.614;2023-03-21T01:43:22;8.60;1.00
3860;DHT22;1945;52.036;8.614;2023-03-21T01:46:21;8.60;1.00
3860;DHT22;1945;52.036;8.614;2023-03-21T01:48:53;8.60;1.00
3860;DHT22;1945;52.036;8.614;2023-03-21T01:51:22;8.60;1.00
3860;DHT22;1945;52.036;8.614;2023-03-21T01:53:50;8.60;1.00
3860;DHT22;1945;52.036;8.614;2023-03-21T01:56:22;9.00;1.00
3860;DHT22;1945;52.036;8.614;2023-03-21T01:58:52;8.60;1.00
3860;DHT22;1945;52.036;8.614;2023-03-21T02:01:20;8.60;1.00
3860;DHT22;1945;52.036;8.614;2023-03-21T02:03:48;8.60;1.00
3860;DHT22;1945;52.036;8.614;2023-03-21T02:06:31;9.00;1.00
3860;DHT22;1945;52.036;8.614;2023-03-21T02:09:02;8.60;1.00
3860;DHT22;1945;52.036;8.614;2023-03-21T02:11:31;8.50;1.00
3860;DHT22;1945;52.036;8.614;2023-03-21T02:13:58;8.50;1.00
3860;DHT22;1945;52.036;8.614;2023-03-21T02:16:32;8.50;1.00
3860;DHT22;1945;52.036;8.614;2023-03-21T02:19:20;8.90;1.00
3860;DHT22;1945;52.036;8.614;2023-03-21T02:22:10;8.50;1.00
3860;DHT22;1945;52.036;8.614;2023-03-21T02:27:46;8.60;1.00
3860;DHT22;1945;52.036;8.614;2023-03-21T02:30:31;9.00;1.00
3860;DHT22;1945;52.036;8.614;2023-03-21T02:33:24;8.60;1.00
3860;DHT22;1945;52.036;8.614;2023-03-21T02:36:11;8.60;1.00
3860;DHT22;1945;52.036;8.614;2023-03-21T02:38:49;8.60;1.00
3860;DHT22;1945;52.036;8.614;2023-03-21T02:41:22;9.00;1.00
3860;DHT22;1945;52.036;8.614;2023-03-21T02:43:54;9.00;1.00
3860;DHT22;1945;52.036;8.614;2023-03-21T02:46:25;8.60;1.00
3860;DHT22;1945;52.036;8.614;2023-03-21T02:48:58;9.00;7.20
3860;DHT22;1945;52.036;8.614;2023-03-21T02:51:26;8.90;32.20
3860;DHT22;1945;52.036;8.614;2023-03-21T02:54:00;8.50;52.40
3860;DHT22;1945;52.036;8.614;2023-03-21T02:56:29;9.00;72.10
3860;DHT22;1945;52.036;8.614;2023-03-21T02:58:56;8.50;91.50
3860;DHT22;1945;52.036;8.614;2023-03-21T03:01:23;8.50;99.00
3860;DHT22;1945;52.036;8.614;2023-03-21T03:03:50;8.40;99.90
3860;DHT22;1945;52.036;8.614;2023-03-21T03:06:20;8.80;99.90
3860;DHT22;1945;52.036;8.614;2023-03-21T03:08:59;8.40;99.90
3860;DHT22;1945;52.036;8.614;2023-03-21T03:11:30;8.40;99.90
3860;DHT22;1945;52.036;8.614;2023-03-21T03:17:00;8.40;99.90
3860;DHT22;1945;52.036;8.614;2023-03-21T03:19:33;9.00;99.90
3860;DHT22;1945;52.036;8.614;2023-03-21T03:22:06;8.80;99.90
3860;DHT22;1945;52.036;8.614;2023-03-21T03:24:38;8.70;99.90
3860;DHT22;1945;52.036;8.614;2023-03-21T03:27:10;8.40;99.90
3860;DHT22;1945;52.036;8.614;2023-03-21T03:29:40;8.50;99.90
3860;DHT22;1945;52.036;8.614;2023-03-21T03:32:12;8.40;99.90
3860;DHT22;1945;52.036;8.614;2023-03-21T03:34:43;8.80;99.90
3860;DHT22;1945;52.036;8.614;2023-03-21T03:37:16;8.40;99.90
3860;DHT22;1945;52.036;8.614;2023-03-21T03:39:47;8.90;99.90
3860;DHT22;1945;52.036;8.614;2023-03-21T03:42:17;8.40;99.90
3860;DHT22;1945;52.036;8.614;2023-03-21T03:44:45;8.40;99.90
3860;DHT22;1945;52.036;8.614;2023-03-21T03:47:16;8.40;99.90
3860;DHT22;1945;52.036;8.614;2023-03-21T03:49:47;8.20;99.90
3860;DHT22;1945;52.036;8.614;2023-03-21T03:52:18;8.50;99.90
3860;DHT22;1945;52.036;8.614;2023-03-21T03:54:48;8.90;99.90
3860;DHT22;1945;52.036;8.614;2023-03-21T03:57:17;8.90;99.90
3860;DHT22;1945;52.036;8.614;2023-03-21T03:59:45;8.50;99.90
3860;DHT22;1945;52.036;8.614;2023-03-21T04:02:12;8.50;99.90
3860;DHT22;1945;52.036;8.614;2023-03-21T04:04:39;9.00;99.90
3860;DHT22;1945;52.036;8.614;2023-03-21T04:07:06;9.00;99.90
3860;DHT22;1945;52.036;8.614;2023-03-21T04:09:33;8.60;99.90
3860;DHT22;1945;52.036;8.614;2023-03-21T04:12:01;8.50;99.90
3860;DHT22;1945;52.036;8.614;2023-03-21T04:14:28;8.60;99.90
3860;DHT22;1945;52.036;8.614;2023-03-21T04:16:55;9.10;49.60
3860;DHT22;1945;52.036;8.614;2023-03-21T04:19:21;8.60;5.90
3860;DHT22;1945;52.036;8.614;2023-03-21T04:21:48;8.60;1.50
3860;DHT22;1945;52.036;8.614;2023-03-21T04:24:15;9.10;1.00
3860;DHT22;1945;52.036;8.614;2023-03-21T04:26:42;8.60;1.00
3860;DHT22;1945;52.036;8.614;2023-03-21T04:29:10;8.60;1.00
3860;DHT22;1945;52.036;8.614;2023-03-21T04:31:36;8.60;1.00
3860;DHT22;1945;52.036;8.614;2023-03-21T04:34:12;9.10;1.00
3860;DHT22;1945;52.036;8.614;2023-03-21T04:36:38;8.60;1.00
3860;DHT22;1945;52.036;8.614;2023-03-21T04:39:09;9.10;1.00
3860;DHT22;1945;52.036;8.614;2023-03-21T04:41:38;9.10;1.00
3860;DHT22;1945;52.036;8.614;2023-03-21T04:44:05;8.60;1.00
3860;DHT22;1945;52.036;8.614;2023-03-21T04:46:34;8.60;1.00
3860;DHT22;1945;52.036;8.614;2023-03-21T04:49:01;9.00;1.00
3860;DHT22;1945;52.036;8.614;2023-03-21T04:51:28;9.10;1.00
3860;DHT22;1945;52.036;8.614;2023-03-21T04:53:55;8.60;1.00
3860;DHT22;1945;52.036;8.614;2023-03-21T04:56:23;9.10;1.00
3860;DHT22;1945;52.036;8.614;2023-03-21T04:58:55;8.60;1.00
3860;DHT22;1945;52.036;8.614;2023-03-21T05:01:22;8.60;1.00
3860;DHT22;1945;52.036;8.614;2023-03-21T05:03:51;9.10;1.00
3860;DHT22;1945;52.036;8.614;2023-03-21T05:06:18;9.10;1.00
3860;DHT22;1945;52.036;8.614;2023-03-21T05:08:45;8.60;1.00
3860;DHT22;1945;52.036;8.614;2023-03-21T05:11:11;9.10;1.00
3860;DHT22;1945;52.036;8.614;2023-03-21T05:13:38;9.10;1.00
3860;DHT22;1945;52.036;8.614;2023-03-21T05:16:06;9.20;1.00
3860;DHT22;1945;52.036;8.614;2023-03-21T05:18:32;8.70;1.00
3860;DHT22;1945;52.036;8.614;2023-03-21T05:21:04;8.70;1.00
3860;DHT22;1945;52.036;8.614;2023-03-21T05:23:32;8.70;1.00
3860;DHT22;1945;52.036;8.614;2023-03-21T05:26:03;8.80;1.00
3860;DHT22;1945;52.036;8.614;2023-03-21T05:28:30;8.80;1.00
3860;DHT22;1945;52.036;8.614;2023-03-21T05:31:01;8.80;1.00
3860;DHT22;1945;52.036;8.614;2023-03-21T05:33:28;8.80;1.00
3860;DHT22;1945;52.036;8.614;2023-03-21T05:35:54;8.80;1.00
3860;DHT22;1945;52.036;8.614;2023-03-21T05:38:23;8.90;1.00
3860;DHT22;1945;52.036;8.614;2023-03-21T05:40:50;9.30;1.00
3860;DHT22;1945;52.036;8.614;2023-03-21T05:43:17;8.90;1.00
3860;DHT22;1945;52.036;8.614;2023-03-21T05:45:43;8.80;1.00
3860;DHT22;1945;52.036;8.614;2023-03-21T05:48:12;8.90;1.00
3860;DHT22;1945;52.036;8.614;2023-03-21T05:50:40;9.50;1.00
3860;DHT22;1945;52.036;8.614;2023-03-21T05:53:07;9.10;1.00
3860;DHT22;1945;52.036;8.614;2023-03-21T05:55:35;9.70;1.00
3860;DHT22;1945;52.036;8.614;2023-03-21T05:58:01;8.90;1.00
3860;DHT22;1945;52.036;8.614;2023-03-21T06:00:28;9.60;1.00
3860;DHT22;1945;52.036;8.614;2023-03-21T06:02:55;9.00;1.00
3860;DHT22;1945;52.036;8.614;2023-03-21T06:05:22;9.00;1.00
3860;DHT22;1945;52.036;8.614;2023-03-21T06:07:49;9.10;1.00
3860;DHT22;1945;52.036;8.614;2023-03-21T06:10:15;9.50;1.00
3860;DHT22;1945;52.036;8.614;2023-03-21T06:12:43;9.10;1.00
3860;DHT22;1945;52.036;8.614;2023-03-21T06:15:11;9.50;1.00
3860;DHT22;1945;52.036;8.614;2023-03-21T06:17:37;9.20;1.00
3860;DHT22;1945;52.036;8.614;2023-03-21T06:20:05;9.70;1.00
3860;DHT22;1945;52.036;8.614;2023-03-21T06:22:33;9.30;1.00
3860;DHT22;1945;52.036;8.614;2023-03-21T06:25:00;9.30;1.00
3860;DHT22;1945;52.036;8.614;2023-03-21T06:27:27;9.40;1.00
3860;DHT22;1945;52.036;8.614;2023-03-21T06:29:55;9.60;1.00
3860;DHT22;1945;52.036;8.614;2023-03-21T06:32:23;9.40;1.00
3860;DHT22;1945;52.036;8.614;2023-03-21T06:34:50;9.40;1.00
3860;DHT22;1945;52.036;8.614;2023-03-21T06:37:17;9.70;1.00
3860;DHT22;1945;52.036;8.614;2023-03-21T06:39:44;9.50;1.00
3860;DHT22;1945;52.036;8.614;2023-03-21T06:42:11;9.50;1.00
3860;DHT22;1945;52.036;8.614;2023-03-21T06:44:38;9.50;1.00
3860;DHT22;1945;52.036;8.614;2023-03-21T06:47:06;9.90;1.00
3860;DHT22;1945;52.036;8.614;2023-03-21T06:49:33;9.60;1.00
3860;DHT22;1945;52.036;8.614;2023-03-21T06:52:00;9.60;1.00
3860;DHT22;1945;52.036;8.614;2023-03-21T06:54:26;9.60;1.00
3860;DHT22;1945;52.036;8.614;2023-03-21T06:56:53;10.20;99.90
3860;DHT22;1945;52.036;8.614;2023-03-21T06:59:21;10.00;99.90
3860;DHT22;1945;52.036;8.614;2023-03-21T07:01:47;9.80;99.90
3860;DHT22;1945;52.036;8.614;2023-03-21T07:04:15;9.80;99.90
3860;DHT22;1945;52.036;8.614;2023-03-21T07:06:42;9.80;99.90
3860;DHT22;1945;52.036;8.614;2023-03-21T07:09:09;9.80;99.90
3860;DHT22;1945;52.036;8.614;2023-03-21T07:11:36;9.90;99.90
3860;DHT22;1945;52.036;8.614;2023-03-21T07:14:03;9.90;99.90
3860;DHT22;1945;52.036;8.614;2023-03-21T07:16:31;10.00;99.90
3860;DHT22;1945;52.036;8.614;2023-03-21T07:18:57;10.50;99.90
3860;DHT22;1945;52.036;8.614;2023-03-21T07:21:26;10.10;99.90
3860;DHT22;1945;52.036;8.614;2023-03-21T07:23:52;10.10;99.90
3860;DHT22;1945;52.036;8.614;2023-03-21T07:26:19;10.10;99.90
3860;DHT22;1945;52.036;8.614;2023-03-21T07:28:46;10.10;99.90
3860;DHT22;1945;52.036;8.614;2023-03-21T07:31:14;10.20;99.90
3860;DHT22;1945;52.036;8.614;2023-03-21T07:33:41;10.20;99.90
3860;DHT22;1945;52.036;8.614;2023-03-21T07:36:09;10.20;99.90
3860;DHT22;1945;52.036;8.614;2023-03-21T07:38:38;10.20;99.90
3860;DHT22;1945;52.036;8.614;2023-03-21T07:41:05;10.20;99.90
3860;DHT22;1945;52.036;8.614;2023-03-21T07:43:32;10.20;99.90
3860;DHT22;1945;52.036;8.614;2023-03-21T07:45:59;10.80;99.90
3860;DHT22;1945;52.036;8.614;2023-03-21T07:48:27;10.30;99.90
3860;DHT22;1945;52.036;8.614;2023-03-21T07:50:54;10.40;99.90
3860;DHT22;1945;52.036;8.614;2023-03-21T07:53:20;10.40;99.90
3860;DHT22;1945;52.036;8.614;2023-03-21T07:55:50;10.80;99.90
3860;DHT22;1945;52.036;8.614;2023-03-21T07:58:17;10.40;99.90
3860;DHT22;1945;52.036;8.614;2023-03-21T08:00:44;10.40;99.90
3860;DHT22;1945;52.036;8.614;2023-03-21T08:03:11;10.40;99.90
3860;DHT22;1945;52.036;8.614;2023-03-21T08:05:38;10.70;99.90
3860;DHT22;1945;52.036;8.614;2023-03-21T08:08:05;10.40;99.90
3860;DHT22;1945;52.036;8.614;2023-03-21T08:10:32;10.30;99.90
3860;DHT22;1945;52.036;8.614;2023-03-21T08:13:00;10.80;99.90
3860;DHT22;1945;52.036;8.614;2023-03-21T08:15:27;10.90;99.90
3860;DHT22;1945;52.036;8.614;2023-03-21T08:17:54;10.80;99.90
3860;DHT22;1945;52.036;8.614;2023-03-21T08:20:21;10.50;99.90
3860;DHT22;1945;52.036;8.614;2023-03-21T08:22:49;10.40;99.90
3860;DHT22;1945;52.036;8.614;2023-03-21T08:25:17;10.50;99.90
3860;DHT22;1945;52.036;8.614;2023-03-21T08:27:45;10.40;99.90
3860;DHT22;1945;52.036;8.614;2023-03-21T08:30:16;10.70;99.90
3860;DHT22;1945;52.036;8.614;2023-03-21T08:32:43;10.30;99.90
3860;DHT22;1945;52.036;8.614;2023-03-21T08:35:12;10.80;99.90
3860;DHT22;1945;52.036;8.614;2023-03-21T08:37:41;10.30;99.90
3860;DHT22;1945;52.036;8.614;2023-03-21T08:40:10;10.20;99.90
3860;DHT22;1945;52.036;8.614;2023-03-21T08:42:38;10.20;99.90
3860;DHT22;1945;52.036;8.614;2023-03-21T08:45:06;10.10;1.00
3860;DHT22;1945;52.036;8.614;2023-03-21T08:47:34;10.10;1.00
3860;DHT22;1945;52.036;8.614;2023-03-21T08:50:02;10.10;1.00
3860;DHT22;1945;52.036;8.614;2023-03-21T08:52:31;10.10;1.00
3860;DHT22;1945;52.036;8.614;2023-03-21T08:54:58;10.50;1.00
3860;DHT22;1945;52.036;8.614;2023-03-21T08:57:26;10.50;1.00
3860;DHT22;1945;52.036;8.614;2023-03-21T08:59:53;10.70;1.00
3860;DHT22;1945;52.036;8.614;2023-03-21T09:02:20;10.30;1.00
3860;DHT22;1945;52.036;8.614;2023-03-21T09:04:48;10.20;1.00
3860;DHT22;1945;52.036;8.614;2023-03-21T09:07:18;10.30;1.00
3860;DHT22;1945;52.036;8.614;2023-03-21T09:09:45;10.30;1.00
3860;DHT22;1945;52.036;8.614;2023-03-21T09:12:13;10.30;1.00
3860;DHT22;1945;52.036;8.614;2023-03-21T09:14:40;10.30;1.00
3860;DHT22;1945;52.036;8.614;2023-03-21T09:17:07;10.30;1.00
3860;DHT22;1945;52.036;8.614;2023-03-21T09:19:34;10.20;1.00
3860;DHT22;1945;52.036;8.614;2023-03-21T09:22:02;10.30;1.00
3860;DHT22;1945;52.036;8.614;2023-03-21T09:24:30;10.20;1.00
3860;DHT22;1945;52.036;8.614;2023-03-21T09:26:58;10.10;1.00
3860;DHT22;1945;52.036;8.614;2023-03-21T09:29:25;10.20;1.00
3860;DHT22;1945;52.036;8.614;2023-03-21T09:31:54;10.20;1.00
3860;DHT22;1945;52.036;8.614;2023-03-21T09:34:22;10.10;1.00
3860;DHT22;1945;52.036;8.614;2023-03-21T09:36:50;10.20;1.00
3860;DHT22;1945;52.036;8.614;2023-03-21T09:39:21;10.20;1.00
3860;DHT22;1945;52.036;8.614;2023-03-21T09:42:04;10.10;1.00
3860;DHT22;1945;52.036;8.614;2023-03-21T09:44:42;10.10;1.00
3860;DHT22;1945;52.036;8.614;2023-03-21T09:47:16;10.20;1.00
3860;DHT22;1945;52.036;8.614;2023-03-21T09:49:49;10.70;1.00
3860;DHT22;1945;52.036;8.614;2023-03-21T09:52:21;10.30;1.00
3860;DHT22;1945;52.036;8.614;2023-03-21T09:54:49;9.80;1.00
3860;DHT22;1945;52.036;8.614;2023-03-21T09:57:26;10.80;1.00
3860;DHT22;1945;52.036;8.614;2023-03-21T09:59:57;10.50;1.00
3860;DHT22;1945;52.036;8.614;2023-03-21T10:02:35;11.10;1.00
3860;DHT22;1945;52.036;8.614;2023-03-21T10:05:10;10.70;1.00
3860;DHT22;1945;52.036;8.614;2023-03-21T10:07:40;10.70;1.00
3860;DHT22;1945;52.036;8.614;2023-03-21T10:10:14;10.60;1.00
3860;DHT22;1945;52.036;8.614;2023-03-21T10:12:43;11.10;1.00
3860;DHT22;1945;52.036;8.614;2023-03-21T10:15:16;11.00;1.00
3860;DHT22;1945;52.036;8.614;2023-03-21T10:17:47;10.60;1.00
3860;DHT22;1945;52.036;8.614;2023-03-21T10:20:24;10.40;1.00
3860;DHT22;1945;52.036;8.614;2023-03-21T10:23:14;10.50;1.00
3860;DHT22;1945;52.036;8.614;2023-03-21T10:25:48;10.70;1.00
3860;DHT22;1945;52.036;8.614;2023-03-21T10:28:19;10.60;1.00
3860;DHT22;1945;52.036;8.614;2023-03-21T10:30:51;10.70;1.00
3860;DHT22;1945;52.036;8.614;2023-03-21T10:33:23;10.80;1.00
3860;DHT22;1945;52.036;8.614;2023-03-21T10:35:55;10.80;1.00
3860;DHT22;1945;52.036;8.614;2023-03-21T10:38:24;11.00;1.00
3860;DHT22;1945;52.036;8.614;2023-03-21T10:40:53;11.10;1.00
3860;DHT22;1945;52.036;8.614;2023-03-21T10:43:33;11.10;1.00
3860;DHT22;1945;52.036;8.614;2023-03-21T10:46:09;11.30;1.00
3860;DHT22;1945;52.036;8.614;2023-03-21T10:48:38;11.20;1.00
3860;DHT22;1945;52.036;8.614;2023-03-21T10:51:07;11.20;1.00
3860;DHT22;1945;52.036;8.614;2023-03-21T10:53:38;11.20;1.00
3860;DHT22;1945;52.036;8.614;2023-03-21T10:56:08;11.30;1.00
3860;DHT22;1945;52.036;8.614;2023-03-21T10:58:39;11.20;1.00
3860;DHT22;1945;52.036;8.614;2023-03-21T11:01:10;11.30;1.00
3860;DHT22;1945;52.036;8.614;2023-03-21T11:03:41;11.30;1.00
3860;DHT22;1945;52.036;8.614;2023-03-21T11:06:13;11.40;1.00
3860;DHT22;1945;52.036;8.614;2023-03-21T11:08:45;11.20;1.00
3860;DHT22;1945;52.036;8.614;2023-03-21T11:11:21;11.40;1.00
3860;DHT22;1945;52.036;8.614;2023-03-21T11:13:56;11.40;1.00
3860;DHT22;1945;52.036;8.614;2023-03-21T11:16:25;11.40;1.00
3860;DHT22;1945;52.036;8.614;2023-03-21T11:19:00;11.40;1.00
3860;DHT22;1945;52.036;8.614;2023-03-21T11:21:27;11.40;1.00
3860;DHT22;1945;52.036;8.614;2023-03-21T11:24:02;11.40;1.00
3860;DHT22;1945;52.036;8.614;2023-03-21T11:26:33;11.30;1.00
3860;DHT22;1945;52.036;8.614;2023-03-21T11:29:11;11.30;1.00
3860;DHT22;1945;52.036;8.614;2023-03-21T11:31:41;11.30;1.00
3860;DHT22;1945;52.036;8.614;2023-03-21T11:34:22;11.20;1.00
3860;DHT22;1945;52.036;8.614;2023-03-21T11:36:50;11.30;1.00
3860;DHT22;1945;52.036;8.614;2023-03-21T11:39:30;11.30;1.00
3860;DHT22;1945;52.036;8.614;2023-03-21T11:41:59;11.50;1.00
3860;DHT22;1945;52.036;8.614;2023-03-21T11:44:28;11.40;1.00
3860;DHT22;1945;52.036;8.614;2023-03-21T11:46:55;11.50;1.00
3860;DHT22;1945;52.036;8.614;2023-03-21T11:49:23;11.60;1.00
3860;DHT22;1945;52.036;8.614;2023-03-21T11:52:06;11.50;1.00
3860;DHT22;1945;52.036;8.614;2023-03-21T11:54:45;11.40;1.00
3860;DHT22;1945;52.036;8.614;2023-03-21T11:57:20;11.50;1.00
3860;DHT22;1945;52.036;8.614;2023-03-21T11:59:53;11.50;1.00
3860;DHT22;1945;52.036;8.614;2023-03-21T12:02:43;11.50;1.00
3860;DHT22;1945;52.036;8.614;2023-03-21T12:05:17;11.40;1.00
3860;DHT22;1945;52.036;8.614;2023-03-21T12:07:52;11.40;1.00
3860;DHT22;1945;52.036;8.614;2023-03-21T12:10:37;11.30;1.00
3860;DHT22;1945;52.036;8.614;2023-03-21T12:13:23;11.10;1.00
3860;DHT22;1945;52.036;8.614;2023-03-21T12:16:00;11.10;1.00
3860;DHT22;1945;52.036;8.614;2023-03-21T12:21:33;11.30;1.00
3860;DHT22;1945;52.036;8.614;2023-03-21T12:24:10;11.10;1.00
3860;DHT22;1945;52.036;8.614;2023-03-21T12:26:44;11.40;1.00
3860;DHT22;1945;52.036;8.614;2023-03-21T12:29:28;11.30;1.00
3860;DHT22;1945;52.036;8.614;2023-03-21T12:32:06;11.30;1.00
3860;DHT22;1945;52.036;8.614;2023-03-21T12:37:40;11.30;1.00
3860;DHT22;1945;52.036;8.614;2023-03-21T12:40:16;11.30;1.00
3860;DHT22;1945;52.036;8.614;2023-03-21T12:43:09;11.30;1.00
3860;DHT22;1945;52.036;8.614;2023-03-21T12:45:44;11.30;1.00
3860;DHT22;1945;52.036;8.614;2023-03-21T12:48:16;11.30;1.00
3860;DHT22;1945;52.036;8.614;2023-03-21T12:50:45;11.30;1.00
3860;DHT22;1945;52.036;8.614;2023-03-21T12:53:26;11.60;1.00
3860;DHT22;1945;52.036;8.614;2023-03-21T12:55:57;11.30;1.00
3860;DHT22;1945;52.036;8.614;2023-03-21T12:58:28;11.40;1.00
3860;DHT22;1945;52.036;8.614;2023-03-21T13:00:59;11.40;1.00
3860;DHT22;1945;52.036;8.614;2023-03-21T13:03:30;11.50;1.00
3860;DHT22;1945;52.036;8.614;2023-03-21T13:06:00;11.60;1.00
3860;DHT22;1945;52.036;8.614;2023-03-21T13:08:31;11.50;1.00
3860;DHT22;1945;52.036;8.614;2023-03-21T13:11:00;11.50;1.00
3860;DHT22;1945;52.036;8.614;2023-03-21T13:13:32;11.50;1.00
3860;DHT22;1945;52.036;8.614;2023-03-21T13:16:07;11.30;1.00
3860;DHT22;1945;52.036;8.614;2023-03-21T13:18:48;11.30;1.00
3860;DHT22;1945;52.036;8.614;2023-03-21T13:21:23;11.30;1.00
3860;DHT22;1945;52.036;8.614;2023-03-21T13:24:00;11.40;1.00
3860;DHT22;1945;52.036;8.614;2023-03-21T13:26:37;11.50;1.00
3860;DHT22;1945;52.036;8.614;2023-03-21T13:29:20;11.60;1.00
3860;DHT22;1945;52.036;8.614;2023-03-21T13:31:50;11.70;1.00
3860;DHT22;1945;52.036;8.614;2023-03-21T13:34:20;11.70;1.00
3860;DHT22;1945;52.036;8.614;2023-03-21T13:36:49;11.80;1.00
3860;DHT22;1945;52.036;8.614;2023-03-21T13:39:18;11.90;1.00
3860;DHT22;1945;52.036;8.614;2023-03-21T13:41:47;11.90;1.00
3860;DHT22;1945;52.036;8.614;2023-03-21T13:44:30;11.80;1.00
3860;DHT22;1945;52.036;8.614;2023-03-21T13:47:01;12.00;1.00
3860;DHT22;1945;52.036;8.614;2023-03-21T13:49:32;12.00;1.00
3860;DHT22;1945;52.036;8.614;2023-03-21T13:52:00;12.00;1.00
3860;DHT22;1945;52.036;8.614;2023-03-21T13:54:41;12.00;1.00
3860;DHT22;1945;52.036;8.614;2023-03-21T13:57:21;12.20;1.00
3860;DHT22;1945;52.036;8.614;2023-03-21T13:59:48;12.60;1.00
3860;DHT22;1945;52.036;8.614;2023-03-21T14:02:26;12.00;1.00
3860;DHT22;1945;52.036;8.614;2023-03-21T14:04:57;12.40;1.00
3860;DHT22;1945;52.036;8.614;2023-03-21T14:07:27;12.20;1.00
3860;DHT22;1945;52.036;8.614;2023-03-21T14:09:57;12.10;1.00
3860;DHT22;1945;52.036;8.614;2023-03-21T14:12:28;11.90;1.00
3860;DHT22;1945;52.036;8.614;2023-03-21T14:14:58;12.10;1.00
3860;DHT22;1945;52.036;8.614;2023-03-21T14:17:28;12.20;99.90
3860;DHT22;1945;52.036;8.614;2023-03-21T14:19:58;12.20;99.90
3860;DHT22;1945;52.036;8.614;2023-03-21T14:22:26;12.10;1.00
3860;DHT22;1945;52.036;8.614;2023-03-21T14:24:56;12.20;99.90
3860;DHT22;1945;52.036;8.614;2023-03-21T14:27:27;12.80;1.00
3860;DHT22;1945;52.036;8.614;2023-03-21T14:29:55;12.30;1.00
3860;DHT22;1945;52.036;8.614;2023-03-21T14:32:25;12.40;99.90
3860;DHT22;1945;52.036;8.614;2023-03-21T14:34:54;12.50;99.90
3860;DHT22;1945;52.036;8.614;2023-03-21T14:37:30;12.40;99.90
3860;DHT22;1945;52.036;8.614;2023-03-21T14:39:59;11.90;99.90
3860;DHT22;1945;52.036;8.614;2023-03-21T14:42:26;12.30;99.90
3860;DHT22;1945;52.036;8.614;2023-03-21T14:44:54;12.30;99.90
3860;DHT22;1945;52.036;8.614;2023-03-21T14:47:26;12.50;99.90
3860;DHT22;1945;52.036;8.614;2023-03-21T14:49:55;12.20;99.90
3860;DHT22;1945;52.036;8.614;2023-03-21T14:52:24;12.20;99.90
3860;DHT22;1945;52.036;8.614;2023-03-21T14:54:52;12.30;1.00
3860;DHT22;1945;52.036;8.614;2023-03-21T14:57:22;12.30;99.90
3860;DHT22;1945;52.036;8.614;2023-03-21T14:59:52;12.30;1.00
3860;DHT22;1945;52.036;8.614;2023-03-21T15:02:22;12.30;99.90
3860;DHT22;1945;52.036;8.614;2023-03-21T15:04:54;12.40;99.90
3860;DHT22;1945;52.036;8.614;2023-03-21T15:07:24;12.20;99.90
3860;DHT22;1945;52.036;8.614;2023-03-21T15:09:53;12.20;99.90
3860;DHT22;1945;52.036;8.614;2023-03-21T15:12:20;12.50;99.90
3860;DHT22;1945;52.036;8.614;2023-03-21T15:14:47;12.10;99.90
3860;DHT22;1945;52.036;8.614;2023-03-21T15:17:14;12.10;99.90
3860;DHT22;1945;52.036;8.614;2023-03-21T15:19:41;12.00;99.90
3860;DHT22;1945;52.036;8.614;2023-03-21T15:22:15;12.10;99.90
3860;DHT22;1945;52.036;8.614;2023-03-21T15:24:44;11.60;99.90
3860;DHT22;1945;52.036;8.614;2023-03-21T15:27:15;12.10;99.90
3860;DHT22;1945;52.036;8.614;2023-03-21T15:29:43;12.50;99.90
3860;DHT22;1945;52.036;8.614;2023-03-21T15:32:15;12.20;99.90
3860;DHT22;1945;52.036;8.614;2023-03-21T15:34:43;12.60;99.90
3860;DHT22;1945;52.036;8.614;2023-03-21T15:37:16;12.10;99.90
3860;DHT22;1945;52.036;8.614;2023-03-21T15:39:44;12.00;99.90
3860;DHT22;1945;52.036;8.614;2023-03-21T15:42:26;12.10;99.90
3860;DHT22;1945;52.036;8.614;2023-03-21T15:44:55;12.00;99.90
3860;DHT22;1945;52.036;8.614;2023-03-21T15:47:38;12.40;99.90
3860;DHT22;1945;52.036;8.614;2023-03-21T15:50:07;11.90;99.90
3860;DHT22;1945;52.036;8.614;2023-03-21T15:52:37;12.00;99.90
3860;DHT22;1945;52.036;8.614;2023-03-21T15:55:16;11.90;99.90
3860;DHT22;1945;52.036;8.614;2023-03-21T15:57:47;11.80;99.90
3860;DHT22;1945;52.036;8.614;2023-03-21T16:00:21;11.80;71.30
3860;DHT22;1945;52.036;8.614;2023-03-21T16:02:52;11.80;48.80
3860;DHT22;1945;52.036;8.614;2023-03-21T16:05:23;11.70;23.00
3860;DHT22;1945;52.036;8.614;2023-03-21T16:07:52;11.70;32.60
3860;DHT22;1945;52.036;8.614;2023-03-21T16:10:26;11.60;5.20
3860;DHT22;1945;52.036;8.614;2023-03-21T16:12:53;11.60;5.80
3860;DHT22;1945;52.036;8.614;2023-03-21T16:15:20;11.60;7.60
3860;DHT22;1945;52.036;8.614;2023-03-21T16:17:50;11.50;1.00
3860;DHT22;1945;52.036;8.614;2023-03-21T16:20:20;11.60;1.00
3860;DHT22;1945;52.036;8.614;2023-03-21T16:22:47;11.90;1.00
3860;DHT22;1945;52.036;8.614;2023-03-21T16:25:16;11.50;1.00
3860;DHT22;1945;52.036;8.614;2023-03-21T16:27:43;11.50;1.00
3860;DHT22;1945;52.036;8.614;2023-03-21T16:30:11;11.80;1.00
3860;DHT22;1945;52.036;8.614;2023-03-21T16:32:38;11.50;1.00
3860;DHT22;1945;52.036;8.614;2023-03-21T16:35:05;11.40;2.60
3860;DHT22;1945;52.036;8.614;2023-03-21T16:37:32;11.50;26.10
3860;DHT22;1945;52.036;8.614;2023-03-21T16:39:59;11.40;1.00
3860;DHT22;1945;52.036;8.614;2023-03-21T16:42:28;11.40;1.00
3860;DHT22;1945;52.036;8.614;2023-03-21T16:44:54;11.40;1.00
3860;DHT22;1945;52.036;8.614;2023-03-21T16:47:21;11.40;1.00
3860;DHT22;1945;52.036;8.614;2023-03-21T16:49:49;11.40;1.40
3860;DHT22;1945;52.036;8.614;2023-03-21T16:52:16;11.40;1.00